Time;durP1;ratioP1;P1;durP2;ratioP2;P2;SDS_P1;SDS_P2;PMS_P1;PMS_P2;Temp;Humidity;BMP_temperature;BMP_pressure;BME280_temperature;BME280_humidity;BME280_pressure;Samples;Min_cycle;Max_cycle;Signal;HPM_P1;HPM_P2
2022/10/19 00:02:29;;;;;;;40.03;17.95;;;;;;;;;;6209535;22;20193;-93
2022/10/19 00:05:35;;;;;;;37.20;18.08;;;;;;;;;;6338081;22;20167;-93
2022/10/19 00:08:41;;;;;;;41.47;17.88;;;;;;;;;;6336810;22;20188;-93
2022/10/19 00:11:47;;;;;;;36.50;17.60;;;;;;;;;;6337539;22;20211;-94
2022/10/19 00:14:53;;;;;;;35.55;15.95;;;;;;;;;;6338178;22;20191;-92
2022/10/19 00:17:59;;;;;;;39.97;16.38;;;;;;;;;;6337155;22;20152;-93
2022/10/19 00:21:06;;;;;;;33.45;15.93;;;;;;;;;;6336480;22;20198;-94
2022/10/19 00:24:12;;;;;;;34.72;15.93;;;;;;;;;;6337201;22;20176;-92
2022/10/19 00:27:18;;;;;;;43.65;16.85;;;;;;;;;;6339694;22;20203;-94
2022/10/19 00:30:24;;;;;;;39.50;19.40;;;;;;;;;;6340104;22;20164;-95
2022/10/19 00:33:33;;;;;;;33.40;18.08;;;;;;;;;;6338395;22;20202;-92
2022/10/19 00:36:41;;;;;;;43.58;19.77;;;;;;;;;;6340367;22;20192;-92
2022/10/19 00:39:47;;;;;;;41.35;19.38;;;;;;;;;;6337955;22;20161;-94
2022/10/19 00:42:54;;;;;;;36.72;15.90;;;;;;;;;;6337442;22;20209;-92
2022/10/19 00:46:03;;;;;;;43.55;19.13;;;;;;;;;;6339022;22;20259;-93
2022/10/19 00:49:13;;;;;;;59.85;29.50;;;;;;;;;;6339092;22;20215;-93
2022/10/19 00:52:20;;;;;;;41.28;18.10;;;;;;;;;;6338728;22;20168;-94
2022/10/19 00:55:29;;;;;;;32.13;16.13;;;;;;;;;;6338831;22;20243;-93
2022/10/19 00:58:34;;;;;;;33.33;13.77;;;;;;;;;;6337324;22;20193;-94
2022/10/19 01:01:39;;;;;;;32.30;14.55;;;;;;;;;;6337869;22;20152;-93
2022/10/19 01:04:48;;;;;;;32.75;13.73;;;;;;;;;;6338808;22;20203;-95
2022/10/19 01:07:57;;;;;;;34.65;15.88;;;;;;;;;;6338778;22;20184;-94
2022/10/19 01:11:10;;;;;;;29.33;15.25;;;;;;;;;;6336727;22;20160;-94
2022/10/19 01:14:27;;;;;;;37.58;14.90;;;;;;;;;;6336964;22;20165;-94
2022/10/19 01:17:39;;;;;;;30.88;14.65;;;;;;;;;;6338204;22;20227;-92
2022/10/19 01:21:18;;;;;;;38.80;16.83;;;;;;;;;;6338713;22;20180;-94
2022/10/19 01:24:29;;;;;;;36.13;15.18;;;;;;;;;;6339321;22;20207;-92
2022/10/19 01:27:45;;;;;;;31.77;15.27;;;;;;;;;;6337395;22;20168;-93
2022/10/19 01:30:54;;;;;;;27.92;14.20;;;;;;;;;;6339888;22;20171;-95
2022/10/19 01:34:03;;;;;;;23.23;13.68;;;;;;;;;;6338520;22;20172;-93
2022/10/19 01:37:15;;;;;;;31.42;14.27;;;;;;;;;;6337926;22;20247;-94
2022/10/19 01:40:27;;;;;;;35.53;13.60;;;;;;;;;;6338485;22;20148;-92
2022/10/19 01:43:37;;;;;;;29.38;14.27;;;;;;;;;;6337058;22;20145;-92
2022/10/19 01:46:45;;;;;;;25.42;14.05;;;;;;;;;;6336732;22;20238;-95
2022/10/19 01:49:54;;;;;;;33.40;14.23;;;;;;;;;;6336419;22;20229;-92
2022/10/19 01:53:00;;;;;;;36.17;14.32;;;;;;;;;;6336247;22;20164;-94
2022/10/19 01:56:05;;;;;;;26.02;14.27;;;;;;;;;;6336308;22;20188;-93
2022/10/19 01:59:12;;;;;;;32.38;14.73;;;;;;;;;;6336151;22;20203;-93
2022/10/19 02:02:20;;;;;;;35.67;14.52;;;;;;;;;;6336083;22;20661;-94
2022/10/19 02:05:29;;;;;;;30.85;15.75;;;;;;;;;;6336325;22;20649;-94
2022/10/19 02:08:38;;;;;;;39.92;16.55;;;;;;;;;;6336745;22;20161;-95
2022/10/19 02:11:44;;;;;;;39.38;17.23;;;;;;;;;;6337646;22;20168;-94
2022/10/19 02:14:52;;;;;;;34.90;16.83;;;;;;;;;;6336116;22;20599;-93
2022/10/19 02:18:01;;;;;;;44.17;17.55;;;;;;;;;;6336821;22;20165;-94
2022/10/19 02:21:08;;;;;;;51.00;19.02;;;;;;;;;;6336707;22;20169;-94
2022/10/19 02:24:13;;;;;;;48.75;18.70;;;;;;;;;;6336236;22;20169;-95
2022/10/19 02:27:19;;;;;;;58.40;19.15;;;;;;;;;;6338129;22;20168;-94
2022/10/19 02:30:25;;;;;;;58.65;20.33;;;;;;;;;;6337809;22;20187;-92
2022/10/19 02:33:32;;;;;;;51.90;19.92;;;;;;;;;;6337407;22;20168;-93
2022/10/19 02:36:38;;;;;;;49.25;20.83;;;;;;;;;;6338924;22;20694;-92
2022/10/19 02:39:44;;;;;;;66.07;20.30;;;;;;;;;;6339113;22;20479;-93
2022/10/19 02:42:51;;;;;;;62.67;20.42;;;;;;;;;;6341035;22;20147;-94
2022/10/19 02:50:19;;;;;;;42.97;20.02;;;;;;;;;;6355638;22;20175;-93
2022/10/19 02:53:24;;;;;;;65.95;20.75;;;;;;;;;;6336639;22;20168;-94
2022/10/19 02:56:30;;;;;;;57.78;20.50;;;;;;;;;;6336216;22;20306;-95
2022/10/19 02:59:35;;;;;;;52.03;20.17;;;;;;;;;;6337173;22;20196;-93
2022/10/19 03:02:40;;;;;;;62.13;21.58;;;;;;;;;;6335889;22;20184;-93
2022/10/19 03:05:47;;;;;;;63.33;21.92;;;;;;;;;;6335171;22;20164;-94
2022/10/19 03:08:53;;;;;;;113.68;22.20;;;;;;;;;;6336604;22;20217;-95
2022/10/19 03:11:58;;;;;;;202.43;24.98;;;;;;;;;;6335649;22;20164;-94
2022/10/19 03:15:03;;;;;;;51.08;20.80;;;;;;;;;;6336418;22;20597;-93
2022/10/19 03:18:09;;;;;;;50.13;21.25;;;;;;;;;;6335518;22;20619;-95
2022/10/19 03:21:16;;;;;;;55.35;20.85;;;;;;;;;;6333905;22;20627;-94
2022/10/19 03:24:22;;;;;;;40.70;18.92;;;;;;;;;;6335009;22;20149;-93
2022/10/19 03:27:27;;;;;;;45.88;19.88;;;;;;;;;;6316882;22;20173;-95
2022/10/19 03:30:33;;;;;;;39.40;19.02;;;;;;;;;;6334914;22;20191;-95
2022/10/19 03:33:38;;;;;;;35.13;17.58;;;;;;;;;;6334833;22;20211;-93
2022/10/19 03:36:44;;;;;;;37.10;18.70;;;;;;;;;;6337044;22;20210;-93
2022/10/19 03:39:49;;;;;;;35.53;17.52;;;;;;;;;;6335728;22;20168;-90
2022/10/19 03:42:55;;;;;;;32.55;17.00;;;;;;;;;;6356957;22;20144;-94
2022/10/19 03:46:18;;;;;;;29.13;16.08;;;;;;;;;;6335926;22;20153;-91
2022/10/19 03:49:23;;;;;;;35.70;17.88;;;;;;;;;;6338612;22;20147;-94
2022/10/19 03:52:30;;;;;;;37.97;19.10;;;;;;;;;;6339408;22;20159;-95
2022/10/19 03:55:36;;;;;;;31.67;17.13;;;;;;;;;;6337517;22;20175;-96
2022/10/19 03:58:42;;;;;;;33.92;17.38;;;;;;;;;;6336870;22;20160;-94
2022/10/19 04:05:38;;;;;;;33.35;16.67;;;;;;;;;;6338091;22;20212;-92
2022/10/19 04:08:45;;;;;;;32.45;15.57;;;;;;;;;;6338441;22;20164;-94
2022/10/19 04:11:51;;;;;;;32.53;16.23;;;;;;;;;;6337937;22;20714;-93
2022/10/19 04:14:57;;;;;;;28.58;16.33;;;;;;;;;;6337103;22;20157;-93
2022/10/19 04:18:42;;;;;;;31.50;16.75;;;;;;;;;;6339688;22;20183;-95
2022/10/19 04:21:48;;;;;;;29.90;16.00;;;;;;;;;;6339285;22;20217;-95
2022/10/19 04:24:56;;;;;;;31.63;16.02;;;;;;;;;;6337504;22;20233;-94
2022/10/19 04:28:01;;;;;;;32.38;16.00;;;;;;;;;;6339624;22;20168;-94
2022/10/19 22:56:59;;;;;;;33.40;9.70;;;;;;;;;;6239457;22;20205;-92
2022/10/19 23:00:05;;;;;;;19.38;9.30;;;;;;;;;;6305524;22;20212;-91
2022/10/19 23:03:11;;;;;;;19.48;9.75;;;;;;;;;;6304814;22;20145;-91
2022/10/19 23:06:17;;;;;;;24.13;9.43;;;;;;;;;;6306443;22;20149;-92
2022/10/19 23:09:22;;;;;;;17.30;9.65;;;;;;;;;;6307747;22;20160;-92
2022/10/19 23:12:32;;;;;;;18.40;8.93;;;;;;;;;;6310285;22;20165;-91
2022/10/19 23:15:51;;;;;;;20.38;9.25;;;;;;;;;;6309299;22;20165;-93
2022/10/19 23:18:56;;;;;;;21.27;8.23;;;;;;;;;;6308752;22;20159;-89
2022/10/19 23:22:02;;;;;;;25.55;9.13;;;;;;;;;;6307842;22;20173;-90
2022/10/19 23:25:08;;;;;;;17.60;8.43;;;;;;;;;;6307552;22;20168;-90
2022/10/19 23:28:15;;;;;;;16.08;9.25;;;;;;;;;;6308724;22;20185;-88
2022/10/19 23:31:23;;;;;;;19.48;8.60;;;;;;;;;;6306320;22;20529;-90
2022/10/19 23:34:28;;;;;;;14.15;8.52;;;;;;;;;;6307208;22;20156;-90
2022/10/19 23:37:34;;;;;;;16.80;8.27;;;;;;;;;;6306738;22;20232;-92
2022/10/19 23:40:39;;;;;;;18.73;9.15;;;;;;;;;;6307552;22;20176;-93
2022/10/19 23:43:48;;;;;;;18.08;8.57;;;;;;;;;;6306541;22;20169;-92
2022/10/19 23:46:56;;;;;;;19.80;9.20;;;;;;;;;;6306085;22;20235;-91
2022/10/19 23:50:02;;;;;;;19.45;8.48;;;;;;;;;;6305395;22;20161;-92
2022/10/19 23:53:07;;;;;;;15.60;8.25;;;;;;;;;;6279393;22;20165;-89
2022/10/19 23:56:13;;;;;;;15.75;8.05;;;;;;;;;;6306343;22;20200;-93
2022/10/19 23:59:20;;;;;;;19.70;8.30;;;;;;;;;;6305354;22;20243;-92
